Time;durP1;ratioP1;P1;durP2;ratioP2;P2;SDS_P1;SDS_P2;PMS_P1;PMS_P2;Temp;Humidity;BMP_temperature;BMP_pressure;BME280_temperature;BME280_humidity;BME280_pressure;Samples;Min_cycle;Max_cycle;Signal;HPM_P1;HPM_P2
2023/09/21 00:00:45;;;;;;;5.57;1.98;;;17.80;99.90;;;;;;4995689;28;20038;-80
2023/09/21 00:03:11;;;;;;;4.30;1.63;;;17.80;99.90;;;;;;4995729;28;20034;-80
2023/09/21 00:05:37;;;;;;;3.55;1.85;;;17.80;99.90;;;;;;4996949;28;20034;-81
2023/09/21 00:08:04;;;;;;;3.97;1.80;;;17.80;99.90;;;;;;4997284;28;20116;-81
2023/09/21 00:10:31;;;;;;;3.38;1.95;;;17.90;99.90;;;;;;4993384;28;20046;-80
2023/09/21 00:13:00;;;;;;;3.40;1.60;;;18.00;99.90;;;;;;4996741;28;20049;-80
2023/09/21 00:15:27;;;;;;;4.80;1.88;;;17.90;99.90;;;;;;4995750;28;20140;-83
2023/09/21 00:17:53;;;;;;;3.47;1.75;;;17.90;99.90;;;;;;4995799;28;20041;-80
2023/09/21 00:20:36;;;;;;;3.22;1.90;;;17.90;99.90;;;;;;4996262;28;20396;-81
2023/09/21 00:23:08;;;;;;;5.50;1.95;;;18.10;99.90;;;;;;4995222;28;20052;-81
2023/09/21 00:25:34;;;;;;;5.18;1.88;;;18.00;99.90;;;;;;4994075;28;20086;-80
2023/09/21 00:28:04;;;;;;;3.30;1.63;;;18.00;99.90;;;;;;4995344;28;20564;-82
2023/09/21 00:30:30;;;;;;;4.03;1.92;;;18.00;99.90;;;;;;4979557;28;20049;-82
2023/09/21 00:32:55;;;;;;;3.40;1.73;;;18.00;99.90;;;;;;4996801;28;20041;-80
2023/09/21 00:35:23;;;;;;;4.60;1.85;;;18.10;99.90;;;;;;4996703;28;20065;-78
2023/09/21 00:37:49;;;;;;;4.20;1.80;;;18.10;99.90;;;;;;4994642;28;20038;-79
2023/09/21 00:40:18;;;;;;;3.53;1.83;;;18.10;99.90;;;;;;4994658;28;20072;-80
2023/09/21 00:42:44;;;;;;;3.53;1.77;;;18.20;99.90;;;;;;4994681;28;20081;-80
2023/09/21 00:45:10;;;;;;;4.72;1.60;;;18.20;99.90;;;;;;4991300;28;20128;-82
2023/09/21 00:47:39;;;;;;;7.85;1.80;;;18.20;99.90;;;;;;4993241;28;20468;-81
2023/09/21 00:50:07;;;;;;;4.18;1.73;;;18.20;99.90;;;;;;4992342;28;20535;-80
2023/09/21 00:52:33;;;;;;;4.40;1.90;;;18.20;99.90;;;;;;4994933;28;20045;-81
2023/09/21 00:54:59;;;;;;;3.50;1.80;;;18.30;99.90;;;;;;4996680;28;20104;-82
2023/09/21 00:57:25;;;;;;;3.75;1.75;;;18.30;99.90;;;;;;4993816;28;20042;-82
2023/09/21 00:59:52;;;;;;;4.13;2.00;;;18.30;99.90;;;;;;4994994;28;20114;-80
2023/09/21 01:02:18;;;;;;;5.22;1.70;;;18.30;99.90;;;;;;4995250;28;20049;-79
2023/09/21 01:04:44;;;;;;;3.80;1.90;;;18.20;99.90;;;;;;4978468;28;20042;-80
2023/09/21 01:07:17;;;;;;;6.72;1.67;;;18.20;99.90;;;;;;4995110;28;20037;-80
2023/09/21 01:09:44;;;;;;;4.43;1.98;;;18.20;99.90;;;;;;4995544;28;20463;-82
2023/09/21 01:12:13;;;;;;;3.83;1.70;;;18.20;99.90;;;;;;4992231;28;20045;-80
2023/09/21 01:14:39;;;;;;;4.43;2.03;;;18.20;99.90;;;;;;4992022;28;20374;-82
2023/09/21 01:17:04;;;;;;;6.70;2.33;;;18.20;99.90;;;;;;4995314;28;20037;-81
2023/09/21 01:19:30;;;;;;;4.03;1.83;;;18.20;99.90;;;;;;4994133;28;20638;-80
2023/09/21 01:21:59;;;;;;;4.65;1.90;;;18.20;99.90;;;;;;4994037;28;20041;-80
2023/09/21 01:24:27;;;;;;;3.80;1.95;;;18.30;99.90;;;;;;4994345;28;20061;-82
2023/09/21 01:26:52;;;;;;;4.03;1.80;;;18.30;99.90;;;;;;4996419;28;20037;-80
2023/09/21 01:29:18;;;;;;;3.10;1.60;;;18.40;99.90;;;;;;4994707;28;20111;-81
2023/09/21 01:31:45;;;;;;;3.97;1.90;;;18.60;99.90;;;;;;4994276;28;20038;-81
2023/09/21 01:34:11;;;;;;;3.63;2.00;;;18.60;99.90;;;;;;4999427;28;20045;-81
2023/09/21 01:36:37;;;;;;;3.60;1.60;;;18.60;99.90;;;;;;4999589;28;20037;-82
2023/09/21 01:39:08;;;;;;;3.90;2.03;;;18.60;99.90;;;;;;5011781;28;20037;-83
2023/09/21 01:41:34;;;;;;;4.30;1.98;;;18.50;99.90;;;;;;4984515;28;20029;-83
2023/09/21 01:44:00;;;;;;;3.63;1.80;;;18.60;99.90;;;;;;4997609;28;20128;-82
2023/09/21 01:46:26;;;;;;;4.60;2.20;;;18.50;99.90;;;;;;4998398;28;20120;-82
2023/09/21 01:48:53;;;;;;;4.97;2.20;;;18.50;99.90;;;;;;4999212;28;20140;-83
2023/09/21 01:51:19;;;;;;;3.83;1.83;;;18.40;99.90;;;;;;4982941;28;20092;-81
2023/09/21 01:53:45;;;;;;;5.70;2.28;;;18.40;99.90;;;;;;4999508;28;20034;-80
2023/09/21 01:56:11;;;;;;;4.40;1.92;;;18.50;99.90;;;;;;5000776;28;20045;-82
2023/09/21 01:58:36;;;;;;;4.05;1.92;;;18.50;99.90;;;;;;4996325;28;20758;-82
2023/09/21 02:01:03;;;;;;;4.22;2.08;;;18.40;99.90;;;;;;5001499;28;20038;-81
2023/09/21 02:03:31;;;;;;;4.93;2.38;;;18.40;99.90;;;;;;4996935;28;20570;-80
2023/09/21 02:05:59;;;;;;;5.68;2.45;;;18.40;99.90;;;;;;4995846;28;20056;-84
2023/09/21 02:08:26;;;;;;;3.00;1.70;;;18.40;99.90;;;;;;4982774;28;20046;-83
2023/09/21 02:10:52;;;;;;;4.90;1.80;;;18.40;99.90;;;;;;4997211;28;20069;-80
2023/09/21 02:13:18;;;;;;;4.38;2.10;;;18.40;99.90;;;;;;5012165;28;20065;-82
2023/09/21 02:15:44;;;;;;;6.30;1.95;;;18.40;99.90;;;;;;4978785;28;20035;-82
2023/09/21 02:18:10;;;;;;;3.10;1.67;;;18.30;99.90;;;;;;4975448;28;20036;-82
2023/09/21 02:20:41;;;;;;;3.78;1.92;;;18.40;99.90;;;;;;4982685;28;20037;-81
2023/09/21 02:23:08;;;;;;;5.25;2.00;;;18.40;99.90;;;;;;4998086;28;20516;-81
2023/09/21 02:25:35;;;;;;;3.30;1.70;;;18.40;99.90;;;;;;5010839;28;20046;-80
2023/09/21 02:28:09;;;;;;;4.28;2.13;;;18.40;99.90;;;;;;4992452;28;20103;-80
2023/09/21 02:30:36;;;;;;;4.57;2.47;;;18.40;99.90;;;;;;4996235;28;20081;-82
2023/09/21 02:33:07;;;;;;;6.32;1.92;;;18.30;99.90;;;;;;4981353;28;20457;-84
2023/09/21 02:35:33;;;;;;;4.05;2.05;;;18.30;99.90;;;;;;4997404;28;20038;-82
2023/09/21 02:38:00;;;;;;;3.45;1.90;;;18.30;99.90;;;;;;4995122;28;20034;-81
2023/09/21 02:40:26;;;;;;;3.63;1.85;;;18.30;99.90;;;;;;4993922;28;20053;-84
2023/09/21 02:42:53;;;;;;;3.80;2.30;;;18.30;99.90;;;;;;4994344;28;20037;-81
2023/09/21 02:45:23;;;;;;;3.35;2.03;;;18.30;99.90;;;;;;4998361;28;20042;-80
2023/09/21 02:47:54;;;;;;;3.78;1.90;;;18.30;99.90;;;;;;4997639;28;20038;-83
2023/09/21 02:50:27;;;;;;;3.33;1.70;;;18.30;99.90;;;;;;4988649;28;20173;-80
2023/09/21 02:53:08;;;;;;;3.83;1.80;;;18.30;99.90;;;;;;4997238;28;20064;-81
2023/09/21 02:55:36;;;;;;;4.32;1.70;;;18.30;99.90;;;;;;4996828;28;20375;-83
2023/09/21 02:58:10;;;;;;;4.47;1.95;;;18.30;99.90;;;;;;4996474;28;20060;-83
2023/09/21 03:00:40;;;;;;;5.40;1.80;;;18.30;99.90;;;;;;5000912;28;20042;-84
2023/09/21 03:03:07;;;;;;;3.72;1.95;;;18.30;99.90;;;;;;5010415;28;20490;-79
2023/09/21 03:05:33;;;;;;;5.57;1.92;;;18.40;99.90;;;;;;4995752;28;20119;-82
2023/09/21 03:08:13;;;;;;;3.50;1.88;;;18.40;99.90;;;;;;4996979;28;20060;-81
2023/09/21 03:10:40;;;;;;;5.15;2.00;;;18.40;99.90;;;;;;4999219;28;20066;-82
2023/09/21 03:13:06;;;;;;;4.10;1.80;;;18.40;99.90;;;;;;4994493;28;20556;-82
2023/09/21 03:15:36;;;;;;;3.80;1.75;;;18.40;99.90;;;;;;4993559;28;20125;-80
2023/09/21 03:18:07;;;;;;;4.10;2.05;;;18.40;99.90;;;;;;4996142;28;20084;-82
2023/09/21 03:20:34;;;;;;;3.97;1.90;;;18.40;99.90;;;;;;4999064;28;20042;-81
2023/09/21 03:23:05;;;;;;;4.70;1.98;;;18.50;99.90;;;;;;4980800;28;20041;-83
2023/09/21 03:25:34;;;;;;;3.78;1.90;;;18.40;99.90;;;;;;4997765;28;20040;-81
2023/09/21 03:28:07;;;;;;;3.70;1.77;;;18.40;99.90;;;;;;4994122;28;20101;-82
2023/09/21 03:30:32;;;;;;;3.63;1.95;;;18.40;99.90;;;;;;4997267;28;20037;-83
2023/09/21 03:32:59;;;;;;;2.90;1.75;;;18.40;99.90;;;;;;4996268;28;20057;-81
2023/09/21 03:35:26;;;;;;;4.45;1.67;;;18.30;99.90;;;;;;4995977;28;20050;-82
2023/09/21 03:37:53;;;;;;;2.60;1.80;;;18.30;99.90;;;;;;4996486;28;20034;-81
2023/09/21 03:40:19;;;;;;;3.30;1.77;;;18.30;99.90;;;;;;4998243;28;20492;-80
2023/09/21 03:42:45;;;;;;;4.35;1.92;;;18.30;99.90;;;;;;4995643;28;20038;-81
2023/09/21 03:45:16;;;;;;;4.05;1.90;;;18.30;99.90;;;;;;4986730;28;20042;-80
2023/09/21 03:47:42;;;;;;;3.55;1.80;;;18.30;99.90;;;;;;4997581;28;20070;-81
2023/09/21 03:50:12;;;;;;;4.72;1.90;;;18.30;99.90;;;;;;4995643;28;20042;-81
2023/09/21 03:52:39;;;;;;;6.15;1.92;;;18.30;99.90;;;;;;4996545;28;20116;-82
2023/09/21 03:55:05;;;;;;;3.95;1.73;;;18.30;99.90;;;;;;4994391;28;20120;-80
2023/09/21 03:57:30;;;;;;;5.78;2.03;;;18.30;99.90;;;;;;4981622;28;20477;-81
2023/09/21 03:59:57;;;;;;;3.08;1.63;;;18.30;99.90;;;;;;4994041;28;20057;-81
2023/09/21 04:02:25;;;;;;;4.93;2.08;;;18.30;99.90;;;;;;4994775;28;20108;-80
2023/09/21 04:04:50;;;;;;;2.80;1.63;;;18.30;99.90;;;;;;4996896;28;20070;-81
2023/09/21 04:07:17;;;;;;;2.83;1.75;;;18.30;99.90;;;;;;4996312;28;20041;-81
2023/09/21 04:09:44;;;;;;;3.97;1.90;;;18.30;99.90;;;;;;4996101;28;20054;-84
2023/09/21 04:12:10;;;;;;;4.07;1.70;;;18.30;99.90;;;;;;5011146;28;20041;-81
2023/09/21 04:14:36;;;;;;;3.30;1.90;;;18.30;99.90;;;;;;4997990;28;20050;-81
2023/09/21 04:17:03;;;;;;;4.68;1.67;;;18.30;99.90;;;;;;4992334;28;20045;-80
2023/09/21 04:19:29;;;;;;;5.93;1.90;;;18.20;99.90;;;;;;4995288;28;20065;-82
2023/09/21 04:21:54;;;;;;;3.90;1.95;;;18.20;99.90;;;;;;4992440;28;20072;-82
2023/09/21 04:24:20;;;;;;;3.92;2.00;;;18.30;99.90;;;;;;4996614;28;20038;-85
2023/09/21 04:26:45;;;;;;;4.68;2.10;;;18.30;99.90;;;;;;4993953;28;20045;-80
2023/09/21 04:29:15;;;;;;;4.78;1.88;;;18.20;99.90;;;;;;4977942;28;20034;-83
2023/09/21 04:31:41;;;;;;;4.03;1.83;;;18.20;99.90;;;;;;4992995;28;20118;-82
2023/09/21 04:34:07;;;;;;;4.63;2.13;;;18.20;99.90;;;;;;4994590;28;20069;-82
2023/09/21 04:36:32;;;;;;;2.13;1.42;;;18.10;99.90;;;;;;5002375;28;20045;-82
2023/09/21 04:38:59;;;;;;;3.40;1.75;;;18.10;99.90;;;;;;4995816;28;20037;-83
2023/09/21 04:41:27;;;;;;;4.78;1.73;;;18.00;99.90;;;;;;4994698;28;20060;-82
2023/09/21 04:43:53;;;;;;;7.00;1.92;;;17.90;99.90;;;;;;4995369;28;20042;-82
2023/09/21 04:46:20;;;;;;;3.70;1.60;;;18.00;99.90;;;;;;4994703;28;20046;-82
2023/09/21 04:48:46;;;;;;;3.72;1.80;;;18.00;99.90;;;;;;4995106;28;20037;-83
2023/09/21 04:51:14;;;;;;;4.07;1.75;;;18.00;99.90;;;;;;4970450;28;20192;-81
2023/09/21 04:53:39;;;;;;;4.95;1.77;;;18.00;99.90;;;;;;4995448;28;20029;-81
2023/09/21 04:56:05;;;;;;;4.13;1.85;;;18.00;99.90;;;;;;4995297;28;20492;-83
2023/09/21 04:58:30;;;;;;;6.75;2.00;;;18.00;99.90;;;;;;4995647;28;20026;-82
2023/09/21 05:00:56;;;;;;;3.33;1.60;;;18.00;99.90;;;;;;4996037;28;20038;-81
2023/09/21 05:03:21;;;;;;;6.55;2.35;;;17.90;99.90;;;;;;4994539;28;20045;-81
2023/09/21 05:05:47;;;;;;;4.82;2.00;;;18.00;99.90;;;;;;4995692;28;20526;-82
2023/09/21 05:08:13;;;;;;;3.15;2.03;;;18.00;99.90;;;;;;4978784;28;20464;-83
2023/09/21 05:10:41;;;;;;;3.80;1.70;;;17.90;99.90;;;;;;4997775;28;20044;-84
2023/09/21 05:13:07;;;;;;;3.13;1.65;;;17.90;99.90;;;;;;5004150;28;20038;-81
2023/09/21 05:15:32;;;;;;;7.28;1.92;;;17.90;99.90;;;;;;5002084;28;20076;-80
2023/09/21 05:17:58;;;;;;;3.78;1.73;;;17.90;99.90;;;;;;4984700;28;20042;-81
2023/09/21 05:20:23;;;;;;;2.97;1.92;;;17.90;99.90;;;;;;5001129;28;20444;-82
2023/09/21 05:22:51;;;;;;;3.55;1.77;;;17.90;99.90;;;;;;5000345;28;20077;-82
2023/09/21 05:25:16;;;;;;;6.45;2.05;;;17.90;99.90;;;;;;4984614;28;20042;-81
2023/09/21 05:27:42;;;;;;;3.13;1.85;;;17.90;99.90;;;;;;4995151;28;20174;-82
2023/09/21 05:30:11;;;;;;;3.70;1.67;;;17.90;99.90;;;;;;5001155;28;20421;-80
2023/09/21 05:32:37;;;;;;;6.25;1.80;;;17.90;99.90;;;;;;5000742;28;20125;-82
2023/09/21 05:35:05;;;;;;;3.78;2.13;;;17.90;99.90;;;;;;4997814;28;20042;-84
2023/09/21 05:37:30;;;;;;;3.20;1.77;;;17.80;99.90;;;;;;4983112;28;20037;-81
2023/09/21 05:39:56;;;;;;;6.18;2.13;;;17.90;99.90;;;;;;5000577;28;20107;-82
2023/09/21 05:42:23;;;;;;;4.30;1.70;;;17.90;99.90;;;;;;4999920;28;20045;-80
2023/09/21 05:44:50;;;;;;;2.97;1.80;;;17.80;99.90;;;;;;4983960;28;20049;-81
2023/09/21 05:47:16;;;;;;;4.45;1.75;;;17.80;99.90;;;;;;4999566;28;20045;-88
2023/09/21 05:49:43;;;;;;;5.55;1.88;;;17.90;99.90;;;;;;4999416;28;20103;-83
2023/09/21 05:52:12;;;;;;;3.25;1.80;;;17.90;99.90;;;;;;4999704;28;20042;-82
2023/09/21 05:54:38;;;;;;;3.92;1.80;;;17.90;99.90;;;;;;4983434;28;20140;-83
2023/09/21 05:57:04;;;;;;;3.60;1.90;;;17.90;99.90;;;;;;4995261;28;20041;-83
2023/09/21 05:59:31;;;;;;;3.17;1.83;;;18.00;99.90;;;;;;4999385;28;20049;-82
2023/09/21 06:01:57;;;;;;;5.93;2.10;;;18.00;99.90;;;;;;5000950;28;20038;-82
2023/09/21 06:04:24;;;;;;;3.05;1.88;;;18.00;99.90;;;;;;4985765;28;20088;-82
2023/09/21 06:06:51;;;;;;;5.10;2.00;;;18.00;99.90;;;;;;5000224;28;20065;-81
2023/09/21 06:09:22;;;;;;;4.30;2.10;;;18.00;99.90;;;;;;4995759;28;20517;-81
2023/09/21 06:11:48;;;;;;;4.38;2.13;;;18.10;99.90;;;;;;4998104;28;20048;-81
2023/09/21 06:14:17;;;;;;;4.78;1.88;;;18.10;99.90;;;;;;4997108;28;20112;-83
2023/09/21 06:16:43;;;;;;;3.70;1.80;;;18.10;99.90;;;;;;4988716;28;20118;-83
2023/09/21 06:19:13;;;;;;;3.88;1.70;;;18.10;99.90;;;;;;4993485;28;20030;-79
2023/09/21 06:21:42;;;;;;;4.18;1.92;;;18.10;99.90;;;;;;4996463;28;20046;-78
2023/09/21 06:24:09;;;;;;;3.90;2.10;;;18.10;99.90;;;;;;4993113;28;20041;-80
2023/09/21 06:26:35;;;;;;;3.30;1.77;;;18.00;99.90;;;;;;4994146;28;20049;-79
2023/09/21 06:29:01;;;;;;;3.50;2.00;;;18.00;99.90;;;;;;4990428;28;20050;-79
2023/09/21 06:31:27;;;;;;;5.43;2.13;;;18.00;99.90;;;;;;4993053;28;20048;-77
2023/09/21 06:33:57;;;;;;;4.05;2.17;;;18.00;99.90;;;;;;4992941;28;20121;-78
2023/09/21 06:36:23;;;;;;;4.50;2.22;;;17.90;99.90;;;;;;4992625;28;20088;-78
2023/09/21 06:38:50;;;;;;;7.95;1.95;;;18.00;99.90;;;;;;5010431;28;20030;-79
2023/09/21 06:41:16;;;;;;;3.20;1.90;;;17.90;99.90;;;;;;4994056;28;20559;-79
2023/09/21 06:43:44;;;;;;;4.88;2.05;;;17.90;99.90;;;;;;4997995;28;20042;-79
2023/09/21 06:46:11;;;;;;;3.90;2.20;;;17.90;99.90;;;;;;4996391;28;20041;-78
2023/09/21 06:48:37;;;;;;;4.05;2.00;;;17.90;99.90;;;;;;4996569;28;20739;-78
2023/09/21 06:51:04;;;;;;;3.20;2.00;;;17.90;99.90;;;;;;4995805;28;20030;-80
2023/09/21 06:53:31;;;;;;;5.38;2.17;;;17.90;99.90;;;;;;4992844;28;20042;-80
2023/09/21 06:55:57;;;;;;;4.78;2.08;;;17.90;99.90;;;;;;4994938;28;20041;-81
2023/09/21 06:58:22;;;;;;;3.42;2.08;;;18.00;99.90;;;;;;4976265;28;20673;-79
2023/09/21 07:00:48;;;;;;;4.68;1.98;;;17.80;99.90;;;;;;4994914;28;20041;-79
2023/09/21 07:03:15;;;;;;;3.38;2.25;;;17.80;99.90;;;;;;4991891;28;20042;-80
2023/09/21 07:05:44;;;;;;;4.05;2.15;;;17.70;99.90;;;;;;5004622;28;20068;-79
2023/09/21 07:08:10;;;;;;;3.70;1.90;;;17.60;99.90;;;;;;4990402;28;20069;-80
2023/09/21 07:10:36;;;;;;;5.07;2.00;;;17.60;99.90;;;;;;5010375;28;20057;-79
2023/09/21 07:13:03;;;;;;;4.22;2.03;;;17.50;99.90;;;;;;4993997;28;20034;-79
2023/09/21 07:15:29;;;;;;;4.25;2.20;;;17.50;99.90;;;;;;4977999;28;20120;-80
2023/09/21 07:17:56;;;;;;;5.22;2.50;;;17.50;99.90;;;;;;4993871;28;20579;-80
2023/09/21 07:20:26;;;;;;;3.58;2.10;;;17.40;99.90;;;;;;4979472;28;20065;-80
2023/09/21 07:22:52;;;;;;;3.90;2.10;;;17.40;99.90;;;;;;4994593;28;20045;-82
2023/09/21 07:25:17;;;;;;;4.60;2.47;;;17.40;99.90;;;;;;4997366;28;20048;-81
2023/09/21 07:27:44;;;;;;;5.10;2.15;;;17.40;99.90;;;;;;4997210;28;20038;-80
2023/09/21 07:30:11;;;;;;;4.63;2.45;;;17.30;99.90;;;;;;4990579;28;20042;-79
2023/09/21 07:32:37;;;;;;;4.57;2.08;;;17.30;99.90;;;;;;4994412;28;20125;-80
2023/09/21 07:35:04;;;;;;;4.53;2.20;;;17.30;99.90;;;;;;4995281;28;20117;-79
2023/09/21 07:37:30;;;;;;;4.82;2.40;;;17.30;99.90;;;;;;4997081;28;20037;-82
2023/09/21 07:39:57;;;;;;;5.35;2.10;;;17.30;99.90;;;;;;4994344;28;20040;-82
2023/09/21 07:42:22;;;;;;;4.22;2.40;;;17.30;99.90;;;;;;4993179;28;20046;-81
2023/09/21 07:44:48;;;;;;;4.13;2.15;;;17.30;99.90;;;;;;4993723;28;21725;-80
2023/09/21 07:47:14;;;;;;;2.70;2.08;;;17.30;99.90;;;;;;4996334;28;20041;-80
2023/09/21 07:49:40;;;;;;;3.83;2.10;;;17.30;99.90;;;;;;4995446;28;20049;-82
2023/09/21 07:52:07;;;;;;;3.33;2.35;;;17.40;99.90;;;;;;4995018;28;20057;-80
2023/09/21 07:54:33;;;;;;;4.78;2.22;;;17.40;99.90;;;;;;4994427;28;20042;-81
2023/09/21 07:56:59;;;;;;;4.55;2.22;;;17.40;99.90;;;;;;4996528;28;20025;-81
2023/09/21 07:59:25;;;;;;;3.65;2.30;;;17.40;99.90;;;;;;4994263;28;20042;-81
2023/09/21 08:01:53;;;;;;;5.57;2.42;;;17.30;99.90;;;;;;4995158;28;20048;-81
2023/09/21 08:04:20;;;;;;;6.07;2.35;;;17.30;99.90;;;;;;4994664;28;20408;-81
2023/09/21 08:06:46;;;;;;;3.70;2.70;;;17.30;99.90;;;;;;4991400;28;20048;-81
2023/09/21 08:09:14;;;;;;;5.43;2.40;;;17.30;99.90;;;;;;4994995;28;20124;-81
2023/09/21 08:11:39;;;;;;;5.15;2.50;;;17.30;99.90;;;;;;4993132;28;20062;-81
2023/09/21 08:14:05;;;;;;;5.57;2.47;;;17.30;99.90;;;;;;4994876;28;20075;-80
2023/09/21 08:16:32;;;;;;;4.47;2.72;;;17.20;99.90;;;;;;4980168;28;20068;-81
2023/09/21 08:18:58;;;;;;;4.53;2.22;;;17.30;99.90;;;;;;4978539;28;20033;-82
2023/09/21 08:21:24;;;;;;;4.50;2.10;;;17.20;99.90;;;;;;4994721;28;20033;-80
2023/09/21 08:23:50;;;;;;;4.78;2.58;;;17.20;99.90;;;;;;4994378;28;20065;-82
2023/09/21 08:26:15;;;;;;;3.45;2.28;;;17.30;99.90;;;;;;4996169;28;20111;-80
2023/09/21 08:28:41;;;;;;;4.70;2.60;;;17.30;99.90;;;;;;4993900;28;20498;-81
2023/09/21 08:31:09;;;;;;;6.80;2.67;;;17.30;99.90;;;;;;4994706;28;20103;-81
2023/09/21 08:33:34;;;;;;;4.68;2.70;;;17.30;99.90;;;;;;4993996;28;20714;-80
2023/09/21 08:36:00;;;;;;;5.18;2.63;;;17.30;99.90;;;;;;4995454;28;20033;-82
2023/09/21 08:38:26;;;;;;;4.72;2.90;;;17.40;99.90;;;;;;4992099;28;20037;-82
2023/09/21 08:40:52;;;;;;;6.10;2.75;;;17.40;99.90;;;;;;4992744;28;20077;-82
2023/09/21 08:43:22;;;;;;;4.20;2.83;;;17.40;99.90;;;;;;4995831;28;20044;-83
2023/09/21 08:45:49;;;;;;;4.68;2.88;;;17.40;99.90;;;;;;4988595;28;20153;-83
2023/09/21 08:48:19;;;;;;;4.70;2.70;;;17.40;99.90;;;;;;4995589;28;20048;-82
2023/09/21 08:50:48;;;;;;;3.97;2.75;;;17.40;99.90;;;;;;4971904;28;20038;-83
2023/09/21 08:53:19;;;;;;;4.32;2.88;;;17.40;99.90;;;;;;4995741;28;20046;-82
2023/09/21 08:55:48;;;;;;;4.60;2.90;;;17.40;99.90;;;;;;4996865;28;20652;-83
2023/09/21 08:58:27;;;;;;;5.80;2.75;;;17.30;99.90;;;;;;4995916;28;20061;-82
2023/09/21 09:00:55;;;;;;;4.35;2.60;;;17.30;99.90;;;;;;4979913;28;20113;-82
2023/09/21 09:03:21;;;;;;;4.93;2.63;;;17.30;99.90;;;;;;4973521;28;20053;-83
2023/09/21 09:05:48;;;;;;;3.80;2.70;;;17.30;99.90;;;;;;4992869;28;20040;-84
2023/09/21 09:08:13;;;;;;;3.33;2.60;;;17.30;99.90;;;;;;4992844;28;20349;-82
2023/09/21 09:10:43;;;;;;;4.10;2.90;;;17.20;99.90;;;;;;4979803;28;20132;-82
2023/09/21 09:13:09;;;;;;;4.35;2.60;;;17.20;99.90;;;;;;5022726;28;20045;-83
2023/09/21 09:15:37;;;;;;;4.38;2.50;;;17.10;99.90;;;;;;5000188;28;20125;-83
2023/09/21 09:18:03;;;;;;;2.90;1.70;;;17.10;99.90;;;;;;4998035;28;20041;-83
2023/09/21 09:20:30;;;;;;;2.92;1.50;;;17.00;99.90;;;;;;5001425;28;20030;-82
2023/09/21 09:22:56;;;;;;;2.40;0.88;;;16.80;99.90;;;;;;5002936;28;20041;-84
2023/09/21 09:25:21;;;;;;;1.45;0.80;;;16.60;99.90;;;;;;4980979;28;20053;-83
2023/09/21 09:27:47;;;;;;;2.47;0.80;;;16.50;99.90;;;;;;4996277;28;20037;-82
2023/09/21 09:30:13;;;;;;;2.85;0.98;;;16.30;99.90;;;;;;4980584;28;20116;-82
2023/09/21 09:32:42;;;;;;;2.35;0.90;;;16.20;99.90;;;;;;4994669;28;20997;-83
2023/09/21 09:35:14;;;;;;;1.80;0.82;;;16.20;99.90;;;;;;4996131;28;20038;-83
2023/09/21 09:37:42;;;;;;;4.10;0.77;;;16.10;99.90;;;;;;4996435;28;20171;-84
2023/09/21 09:40:18;;;;;;;1.33;0.80;;;16.20;99.90;;;;;;4989936;28;20041;-83
2023/09/21 09:42:44;;;;;;;1.50;0.73;;;16.00;99.90;;;;;;4987995;28;20042;-83
2023/09/21 09:45:20;;;;;;;2.22;0.90;;;16.00;99.90;;;;;;4994108;28;20046;-81
2023/09/21 09:47:57;;;;;;;1.88;0.80;;;15.90;99.90;;;;;;4994875;28;20491;-83
2023/09/21 09:50:24;;;;;;;2.05;0.70;;;15.90;99.90;;;;;;4995821;28;20497;-83
2023/09/21 09:53:01;;;;;;;1.90;0.63;;;15.80;99.90;;;;;;4979246;28;20044;-83
2023/09/21 09:55:31;;;;;;;1.95;0.80;;;15.90;99.90;;;;;;4980357;28;20046;-83
2023/09/21 09:57:57;;;;;;;1.50;0.70;;;15.80;99.90;;;;;;4998166;28;20061;-84
2023/09/21 10:00:27;;;;;;;2.60;0.80;;;15.80;99.90;;;;;;4998283;28;20037;-83
2023/09/21 10:02:55;;;;;;;1.52;0.75;;;15.80;99.90;;;;;;4998937;28;20034;-83
2023/09/21 10:05:22;;;;;;;2.08;0.80;;;15.80;99.90;;;;;;4998203;28;20046;-84
2023/09/21 10:07:53;;;;;;;1.45;0.80;;;15.80;99.90;;;;;;4998265;28;20485;-83
2023/09/21 10:10:20;;;;;;;2.08;0.73;;;15.90;99.90;;;;;;4997167;28;20038;-84
2023/09/21 10:12:51;;;;;;;1.67;0.82;;;15.80;99.90;;;;;;4991762;28;20116;-83
2023/09/21 10:15:17;;;;;;;1.23;0.57;;;15.80;99.90;;;;;;4982116;28;20481;-84
2023/09/21 10:17:43;;;;;;;1.23;0.70;;;15.80;99.90;;;;;;4998018;28;20382;-84
2023/09/21 10:20:15;;;;;;;1.38;0.70;;;15.80;99.90;;;;;;4998930;28;20061;-83
2023/09/21 10:22:46;;;;;;;1.52;0.70;;;15.90;99.90;;;;;;4996498;28;20050;-84
2023/09/21 10:25:13;;;;;;;1.02;0.60;;;16.00;99.90;;;;;;4991165;28;20070;-83
2023/09/21 10:27:39;;;;;;;2.22;0.85;;;15.90;99.90;;;;;;5012407;28;20128;-83
2023/09/21 10:30:09;;;;;;;2.67;0.70;;;16.00;99.90;;;;;;4996363;28;20069;-84
2023/09/21 10:32:49;;;;;;;1.25;0.60;;;16.00;99.90;;;;;;4995629;28;20045;-85
2023/09/21 10:35:46;;;;;;;1.40;0.52;;;16.00;99.90;;;;;;4981671;28;20045;-83
2023/09/21 10:38:13;;;;;;;0.95;0.57;;;16.00;99.90;;;;;;4979219;28;20053;-84
2023/09/21 10:40:40;;;;;;;1.63;0.70;;;16.10;99.90;;;;;;4981774;28;20121;-85
2023/09/21 10:43:37;;;;;;;0.88;0.40;;;16.10;99.90;;;;;;4997273;28;20408;-83
2023/09/21 10:46:15;;;;;;;0.93;0.55;;;16.30;99.90;;;;;;4996209;28;20029;-84
2023/09/21 10:48:44;;;;;;;1.67;0.73;;;16.30;99.90;;;;;;4995129;28;20049;-83
2023/09/21 10:51:10;;;;;;;1.15;0.60;;;16.50;99.90;;;;;;4998917;28;20030;-83
2023/09/21 10:53:37;;;;;;;0.85;0.40;;;16.40;99.90;;;;;;5000826;28;20033;-82
2023/09/21 10:56:02;;;;;;;1.45;0.75;;;16.50;99.90;;;;;;4996261;28;20033;-83
2023/09/21 10:58:32;;;;;;;1.33;0.65;;;16.50;99.90;;;;;;4997301;28;20505;-83
2023/09/21 11:01:00;;;;;;;1.45;0.70;;;16.70;99.90;;;;;;4998109;28;20067;-85
2023/09/21 11:03:29;;;;;;;2.20;0.75;;;16.60;99.90;;;;;;4997602;28;20052;-83
2023/09/21 11:05:55;;;;;;;1.13;0.50;;;16.80;99.90;;;;;;4989718;28;20041;-83
2023/09/21 11:08:24;;;;;;;1.58;0.70;;;17.00;99.90;;;;;;4998061;28;20057;-83
2023/09/21 11:10:50;;;;;;;1.30;0.65;;;17.10;99.90;;;;;;4994989;28;20504;-81
2023/09/21 11:13:19;;;;;;;1.20;0.77;;;17.10;99.90;;;;;;4984673;28;20033;-82
2023/09/21 11:15:46;;;;;;;1.67;0.68;;;17.10;99.90;;;;;;5001549;28;20120;-82
2023/09/21 11:18:12;;;;;;;1.15;0.63;;;17.00;99.90;;;;;;4999371;28;20038;-82
2023/09/21 11:20:40;;;;;;;2.20;0.70;;;17.00;99.90;;;;;;4999845;28;20041;-82
2023/09/21 11:23:07;;;;;;;2.70;0.75;;;16.90;99.90;;;;;;4999303;28;20520;-82
2023/09/21 11:25:33;;;;;;;1.77;0.70;;;16.80;99.90;;;;;;5010605;28;20042;-81
2023/09/21 11:27:59;;;;;;;2.50;0.60;;;16.70;99.90;;;;;;5009071;28;20460;-81
2023/09/21 11:30:25;;;;;;;2.05;0.80;;;16.80;99.90;;;;;;5015263;28;20124;-81
2023/09/21 11:32:53;;;;;;;2.95;0.80;;;16.80;99.90;;;;;;4994282;28;20401;-82
2023/09/21 11:35:20;;;;;;;1.48;0.82;;;16.80;99.90;;;;;;4999950;28;20497;-82
2023/09/21 11:37:46;;;;;;;2.28;1.05;;;16.70;99.90;;;;;;4998535;28;20512;-83
2023/09/21 11:40:13;;;;;;;2.20;0.73;;;16.70;99.90;;;;;;5002945;28;20069;-82
2023/09/21 11:42:45;;;;;;;1.48;0.80;;;16.60;99.90;;;;;;4983742;28;20041;-81
2023/09/21 11:45:19;;;;;;;1.35;0.60;;;16.60;99.90;;;;;;5002220;28;20041;-84
2023/09/21 11:47:48;;;;;;;2.13;0.70;;;16.60;99.90;;;;;;4999893;28;20033;-82
2023/09/21 11:50:21;;;;;;;1.95;0.90;;;16.60;99.90;;;;;;4997527;28;20420;-82
2023/09/21 11:52:51;;;;;;;2.13;0.63;;;16.70;99.90;;;;;;5003939;28;20048;-82
2023/09/21 11:55:18;;;;;;;1.65;0.80;;;16.70;99.90;;;;;;4983542;28;20123;-82
2023/09/21 11:57:43;;;;;;;0.90;0.60;;;16.80;99.90;;;;;;4990868;28;20033;-82
2023/09/21 12:00:13;;;;;;;1.75;0.95;;;16.70;99.90;;;;;;5008848;28;20092;-81
2023/09/21 12:02:40;;;;;;;1.02;0.70;;;16.60;99.90;;;;;;4999369;28;20404;-83
2023/09/21 12:05:10;;;;;;;2.63;0.90;;;16.60;99.90;;;;;;4982930;28;20505;-82
2023/09/21 12:07:36;;;;;;;1.45;0.80;;;16.50;99.90;;;;;;4996587;28;20050;-83
2023/09/21 12:10:02;;;;;;;1.88;0.90;;;16.40;99.90;;;;;;4997974;28;20045;-82
2023/09/21 12:12:29;;;;;;;0.98;0.60;;;16.40;99.90;;;;;;4999406;28;20532;-83
2023/09/21 12:14:54;;;;;;;1.80;0.80;;;16.40;99.90;;;;;;4996637;28;20046;-83
2023/09/21 12:17:20;;;;;;;2.20;0.80;;;16.50;99.90;;;;;;4996139;28;20121;-83
2023/09/21 12:19:45;;;;;;;1.10;0.63;;;16.50;99.90;;;;;;4996521;28;20117;-83
2023/09/21 12:22:11;;;;;;;1.40;0.80;;;16.60;99.90;;;;;;4993104;28;20037;-84
2023/09/21 12:24:37;;;;;;;2.58;1.00;;;16.70;99.90;;;;;;4979343;28;20048;-83
2023/09/21 12:27:06;;;;;;;1.75;0.88;;;16.70;99.90;;;;;;4992618;28;20030;-84
2023/09/21 12:29:33;;;;;;;1.20;0.80;;;16.80;99.90;;;;;;4999959;28;20041;-83
2023/09/21 12:31:59;;;;;;;1.13;0.60;;;16.90;99.90;;;;;;4993431;28;20092;-84
2023/09/21 12:34:26;;;;;;;2.03;0.90;;;16.90;99.90;;;;;;4993403;28;20034;-84
2023/09/21 12:36:52;;;;;;;1.80;0.80;;;17.00;99.90;;;;;;4993999;28;20030;-84
2023/09/21 12:39:19;;;;;;;1.05;0.60;;;17.10;99.90;;;;;;4994496;28;20045;-84
2023/09/21 12:41:44;;;;;;;2.78;1.00;;;17.00;99.90;;;;;;4992324;28;20117;-82
2023/09/21 12:44:10;;;;;;;2.58;1.10;;;17.00;99.90;;;;;;4995694;28;20524;-83
2023/09/21 12:46:37;;;;;;;1.77;0.80;;;17.10;99.90;;;;;;4992443;28;20168;-83
2023/09/21 12:49:04;;;;;;;2.05;0.80;;;17.10;99.90;;;;;;4992268;28;20057;-83